Time;durP1;ratioP1;P1;durP2;ratioP2;P2;SDS_P1;SDS_P2;PMS_P1;PMS_P2;Temp;Humidity;BMP_temperature;BMP_pressure;BME280_temperature;BME280_humidity;BME280_pressure;Samples;Min_cycle;Max_cycle;Signal;HPM_P1;HPM_P2
2020/12/25 00:02:14;;;;;;;2.62;2.30;;;;;;;9.33;55.47;98561.56;1765866;80;21215;-66
2020/12/25 00:04:41;;;;;;;3.17;2.70;;;;;;;9.32;55.45;98549.33;1775717;80;21441;-66
2020/12/25 00:07:09;;;;;;;3.87;2.27;;;;;;;9.33;55.46;98556.26;1809717;79;21096;-66
2020/12/25 00:09:39;;;;;;;4.22;2.85;;;;;;;9.33;55.47;98563.73;1781567;80;21166;-66
2020/12/25 00:12:07;;;;;;;2.95;2.40;;;;;;;9.33;55.47;98557.10;1785034;77;21367;-65
2020/12/25 00:14:35;;;;;;;3.05;2.02;;;;;;;9.33;55.46;98576.98;1774350;80;21632;-65
2020/12/25 00:17:02;;;;;;;2.05;1.85;;;;;;;9.34;55.48;98595.02;1809512;79;21184;-65
2020/12/25 00:19:29;;;;;;;2.95;2.15;;;;;;;9.33;55.46;98584.94;1781424;80;21156;-65
2020/12/25 00:21:57;;;;;;;3.65;2.37;;;;;;;9.34;55.44;98602.97;1778147;80;21142;-67
2020/12/25 00:24:24;;;;;;;2.70;1.95;;;;;;;9.33;55.44;98591.56;1761402;80;21456;-67
2020/12/25 00:26:51;;;;;;;2.50;2.08;;;;;;;9.34;55.44;98593.70;1809532;79;21096;-68
2020/12/25 00:29:18;;;;;;;2.67;1.90;;;;;;;9.34;55.45;98594.51;1780522;80;21178;-67
2020/12/25 00:31:46;;;;;;;3.20;2.10;;;;;;;9.34;55.45;98586.56;1809010;79;21159;-67
2020/12/25 00:34:14;;;;;;;3.00;2.22;;;;;;;9.34;55.45;98595.83;1767035;80;21160;-64
2020/12/25 00:36:43;;;;;;;3.50;2.70;;;;;;;9.34;55.44;98592.38;1773700;80;21395;-64
2020/12/25 00:39:14;;;;;;;2.67;2.02;;;;;;;9.35;55.45;98598.81;1809051;79;21187;-64
2020/12/25 00:41:48;;;;;;;2.47;1.92;;;;;;;9.34;55.42;98589.20;1764980;80;21136;-64
2020/12/25 00:44:16;;;;;;;2.47;2.02;;;;;;;9.35;55.45;98582.07;1779249;79;21048;-64
2020/12/25 00:46:43;;;;;;;2.40;1.92;;;;;;;9.34;55.43;98577.80;1777396;80;21123;-65
2020/12/25 00:49:11;;;;;;;3.67;2.20;;;;;;;9.35;55.47;98563.52;1791425;79;21318;-65
2020/12/25 00:51:39;;;;;;;1.77;1.52;;;;;;;9.34;55.46;98561.37;1777009;80;21186;-66
2020/12/25 00:54:06;;;;;;;2.87;1.98;;;;;;;9.35;55.46;98553.76;1805455;79;21179;-65
2020/12/25 00:56:44;;;;;;;2.72;1.82;;;;;;;9.35;55.46;98557.73;1773213;80;21235;-65
2020/12/25 00:59:13;;;;;;;3.10;2.17;;;;;;;9.34;55.46;98560.05;1800669;79;21143;-65
2020/12/25 01:01:40;;;;;;;2.37;1.90;;;;;;;9.34;55.48;98560.05;1765946;80;21794;-65
2020/12/25 01:04:09;;;;;;;2.58;2.10;;;;;;;9.35;55.47;98529.06;1773611;80;21127;-65
2020/12/25 01:06:37;;;;;;;2.35;1.70;;;;;;;9.35;55.47;98537.01;1791505;78;21162;-65
2020/12/25 01:09:04;;;;;;;2.12;1.55;;;;;;;9.35;55.45;98536.53;1769811;80;21173;-65
2020/12/25 01:11:31;;;;;;;3.52;2.02;;;;;;;9.36;55.46;98525.41;1765767;80;21171;-65
2020/12/25 01:13:58;;;;;;;2.65;1.82;;;;;;;9.36;55.47;98520.11;1772272;80;21353;-65
2020/12/25 01:16:25;;;;;;;1.82;1.32;;;;;;;9.35;55.46;98523.76;1764641;80;21151;-66
2020/12/25 01:18:53;;;;;;;2.00;1.52;;;;;;;9.36;55.48;98522.77;1808549;79;21182;-66
2020/12/25 01:21:20;;;;;;;2.75;1.85;;;;;;;9.37;55.47;98516.47;1782561;80;21373;-65
2020/12/25 01:23:47;;;;;;;2.17;1.70;;;;;;;9.36;55.45;98506.34;1780018;79;21102;-67
2020/12/25 01:26:14;;;;;;;3.40;1.98;;;;;;;9.36;55.47;98514.30;1775480;80;21416;-67
2020/12/25 01:28:42;;;;;;;2.22;1.50;;;;;;;9.37;55.46;98513.30;1759773;81;22091;-68
2020/12/25 01:31:09;;;;;;;2.37;1.80;;;;;;;9.38;55.46;98504.84;1804561;79;21088;-67
2020/12/25 01:33:37;;;;;;;3.17;1.55;;;;;;;9.38;55.45;98508.81;1796893;79;21144;-66
2020/12/25 01:36:04;;;;;;;2.65;1.60;;;;;;;9.38;55.46;98514.11;1792259;79;21185;-66
2020/12/25 01:38:32;;;;;;;2.67;1.55;;;;;;;9.38;55.46;98524.72;1805752;79;22357;-67
2020/12/25 01:40:59;;;;;;;2.52;1.60;;;;;;;9.37;55.47;98515.95;1808051;79;21187;-67
2020/12/25 01:43:27;;;;;;;2.22;1.57;;;;;;;9.37;55.48;98525.23;1803713;79;21214;-66
2020/12/25 01:45:54;;;;;;;2.95;1.98;;;;;;;9.38;55.48;98522.06;1793037;79;22043;-66
2020/12/25 01:48:21;;;;;;;2.00;1.12;;;;;;;9.39;55.47;98521.07;1802747;79;21115;-66
2020/12/25 01:50:51;;;;;;;2.70;1.85;;;;;;;9.38;55.48;98530.02;1785841;79;21374;-65
2020/12/25 01:53:21;;;;;;;1.52;1.32;;;;;;;9.39;55.49;98523.72;1792628;79;21120;-66
2020/12/25 01:55:48;;;;;;;1.98;1.72;;;;;;;9.39;55.50;98511.80;1804855;78;21635;-65
2020/12/25 01:58:17;;;;;;;2.83;1.65;;;;;;;9.38;55.50;98525.53;1787455;79;21162;-66
2020/12/25 02:00:46;;;;;;;2.00;1.67;;;;;;;9.38;55.50;98514.92;1785291;79;21155;-66
2020/12/25 02:03:15;;;;;;;2.27;1.65;;;;;;;9.39;55.51;98520.55;1782336;79;22257;-67
2020/12/25 02:05:43;;;;;;;2.08;1.85;;;;;;;9.39;55.51;98511.28;1792803;79;21688;-68
2020/12/25 02:08:11;;;;;;;3.12;1.95;;;;;;;9.40;55.49;98513.41;1803843;79;21180;-65
2020/12/25 02:10:39;;;;;;;2.50;1.85;;;;;;;9.41;55.51;98530.98;1788621;79;21170;-65
2020/12/25 02:13:06;;;;;;;2.98;2.12;;;;;;;9.41;55.51;98503.14;1785840;80;21156;-65
2020/12/25 02:15:35;;;;;;;2.12;1.70;;;;;;;9.41;55.51;98509.77;1765945;80;21304;-65
2020/12/25 02:18:03;;;;;;;2.25;1.72;;;;;;;9.41;55.49;98510.58;1756303;80;21163;-66
2020/12/25 02:20:30;;;;;;;2.90;2.08;;;;;;;9.42;55.51;98508.23;1775574;80;21588;-65
2020/12/25 02:22:58;;;;;;;2.80;2.02;;;;;;;9.42;55.49;98515.37;1788589;79;21126;-65
2020/12/25 02:25:25;;;;;;;3.20;2.15;;;;;;;9.42;55.50;98506.09;1760789;80;21115;-66
2020/12/25 02:27:52;;;;;;;2.85;1.60;;;;;;;9.43;55.50;98509.08;1808544;79;21445;-66
2020/12/25 02:30:21;;;;;;;2.62;1.87;;;;;;;9.43;55.50;98502.45;1777744;80;21116;-68
2020/12/25 02:32:49;;;;;;;2.55;1.85;;;;;;;9.43;55.53;98498.47;1773575;80;21654;-65
2020/12/25 02:35:16;;;;;;;2.30;1.95;;;;;;;9.43;55.52;98497.95;1804664;79;21159;-65
2020/12/25 02:37:43;;;;;;;2.08;1.62;;;;;;;9.44;55.52;98498.77;1764084;80;21162;-67
2020/12/25 02:40:11;;;;;;;3.17;2.35;;;;;;;9.44;55.52;98498.77;1768413;80;21374;-65
2020/12/25 02:42:39;;;;;;;3.02;2.30;;;;;;;9.44;55.54;98502.27;1779829;80;21182;-66
2020/12/25 02:45:07;;;;;;;3.60;2.22;;;;;;;9.44;55.53;98510.22;1771895;80;21143;-66
2020/12/25 02:47:34;;;;;;;3.27;2.22;;;;;;;9.45;55.55;98513.67;1794177;79;21182;-65
2020/12/25 02:50:02;;;;;;;3.15;2.00;;;;;;;9.45;55.52;98515.81;1782489;80;21190;-65
2020/12/25 02:52:30;;;;;;;3.05;2.30;;;;;;;9.47;55.53;98516.95;1794380;79;21325;-65
2020/12/25 02:54:57;;;;;;;2.42;1.92;;;;;;;9.47;55.54;98514.30;1762162;80;21167;-65
2020/12/25 02:57:24;;;;;;;3.35;2.35;;;;;;;9.47;55.54;98499.72;1766413;80;21175;-65
2020/12/25 02:59:53;;;;;;;3.65;2.80;;;;;;;9.47;55.55;98507.67;1791279;79;21211;-65
2020/12/25 03:02:20;;;;;;;4.15;2.67;;;;;;;9.48;55.56;98507.97;1801428;79;21131;-65
2020/12/25 03:04:48;;;;;;;3.85;2.85;;;;;;;9.48;55.55;98499.20;1780675;80;21325;-65
2020/12/25 03:07:15;;;;;;;3.10;2.37;;;;;;;9.48;55.57;98497.88;1804738;79;21472;-65
2020/12/25 03:09:42;;;;;;;4.22;2.80;;;;;;;9.48;55.58;98507.97;1782162;80;21168;-65
2020/12/25 03:12:10;;;;;;;3.00;2.50;;;;;;;9.49;55.56;98500.86;1771140;80;21155;-66
2020/12/25 03:14:37;;;;;;;3.15;2.40;;;;;;;9.49;55.58;98512.28;1754570;80;21145;-65
2020/12/25 03:17:04;;;;;;;4.15;3.20;;;;;;;9.50;55.56;98513.91;1810389;79;21340;-65
2020/12/25 03:19:32;;;;;;;3.40;2.58;;;;;;;9.51;55.58;98516.08;1771939;79;21127;-66
2020/12/25 03:21:59;;;;;;;3.15;2.75;;;;;;;9.52;55.56;98524.32;1756708;80;21508;-66
2020/12/25 03:24:27;;;;;;;3.50;2.80;;;;;;;9.52;55.58;98527.81;1767782;80;21199;-65
2020/12/25 03:26:54;;;;;;;4.53;3.02;;;;;;;9.52;55.57;98526.48;1775195;80;21140;-66
2020/12/25 03:29:21;;;;;;;4.10;2.98;;;;;;;9.52;55.57;98521.19;1810500;79;21401;-67
2020/12/25 03:31:48;;;;;;;4.15;2.90;;;;;;;9.54;55.57;98528.92;1809419;79;21175;-66
2020/12/25 03:34:15;;;;;;;4.55;3.00;;;;;;;9.55;55.58;98530.58;1773850;80;21096;-67
2020/12/25 03:36:44;;;;;;;3.60;3.10;;;;;;;9.54;55.59;98527.12;1815855;77;21126;-66
2020/12/25 03:39:12;;;;;;;4.53;3.47;;;;;;;9.56;55.60;98538.84;1773447;80;21726;-66
2020/12/25 03:41:39;;;;;;;4.15;3.08;;;;;;;9.56;55.59;98550.28;1755235;80;21558;-67
2020/12/25 03:44:06;;;;;;;9.28;4.95;;;;;;;9.57;55.58;98552.42;1806001;79;21979;-65
2020/12/25 03:46:36;;;;;;;5.08;3.47;;;;;;;9.57;55.60;98533.34;1793672;80;21713;-64
2020/12/25 03:49:04;;;;;;;4.37;3.37;;;;;;;9.58;55.60;98535.48;1766140;80;21591;-65
2020/12/25 03:51:31;;;;;;;5.50;3.92;;;;;;;9.58;55.60;98527.53;1767604;80;21157;-66
2020/12/25 03:53:59;;;;;;;6.10;4.33;;;;;;;9.58;55.60;98531.02;1754403;81;21372;-66
2020/12/25 03:56:26;;;;;;;4.50;3.70;;;;;;;9.59;55.60;98523.88;1737858;82;21182;-64
2020/12/25 03:58:53;;;;;;;4.55;3.58;;;;;;;9.60;55.58;98525.51;1746498;81;21131;-65
2020/12/25 04:01:21;;;;;;;5.30;3.87;;;;;;;9.61;55.58;98525.32;1755611;81;21151;-65
2020/12/25 04:03:48;;;;;;;5.80;4.42;;;;;;;9.61;55.58;98517.88;1756402;81;21194;-65
2020/12/25 04:06:15;;;;;;;5.08;3.75;;;;;;;9.61;55.57;98523.19;1751637;81;21211;-65
2020/12/25 04:08:45;;;;;;;4.92;4.17;;;;;;;9.61;55.58;98521.34;1749507;81;21183;-65
2020/12/25 04:11:13;;;;;;;5.65;3.95;;;;;;;9.62;55.58;98523.52;1741039;81;21179;-65
2020/12/25 04:13:40;;;;;;;6.30;4.72;;;;;;;9.63;55.57;98524.63;1735478;82;21187;-65
2020/12/25 04:16:08;;;;;;;6.00;4.33;;;;;;;9.64;55.60;98524.14;1753248;81;21171;-65
2020/12/25 04:18:35;;;;;;;5.17;4.47;;;;;;;9.65;55.58;98529.73;1725991;81;21387;-65
2020/12/25 04:21:03;;;;;;;6.47;3.92;;;;;;;9.65;55.60;98527.09;1729719;82;21198;-65
2020/12/25 04:23:30;;;;;;;6.87;4.60;;;;;;;9.65;55.59;98528.41;1735931;82;21158;-65
2020/12/25 04:25:58;;;;;;;4.33;3.70;;;;;;;9.59;55.58;98536.63;1753569;81;21151;-66
2020/12/25 04:28:25;;;;;;;5.97;4.60;;;;;;;9.67;55.60;98544.95;1754298;81;21167;-67
2020/12/25 04:30:52;;;;;;;6.58;4.70;;;;;;;9.69;55.62;98540.78;1744595;81;21378;-66
2020/12/25 04:33:20;;;;;;;6.30;4.55;;;;;;;9.69;55.63;98540.78;1722726;82;21178;-67
2020/12/25 04:35:48;;;;;;;7.37;5.17;;;;;;;9.69;55.58;98532.83;1770278;80;21197;-67
2020/12/25 04:38:15;;;;;;;5.83;4.60;;;;;;;9.70;55.59;98533.16;1777525;80;21150;-66
2020/12/25 04:40:43;;;;;;;5.80;4.60;;;;;;;9.71;55.57;98538.77;1754812;81;21187;-66
2020/12/25 04:43:13;;;;;;;7.28;5.25;;;;;;;9.71;55.58;98530.30;1730169;82;21197;-66
2020/12/25 04:45:40;;;;;;;7.17;5.17;;;;;;;9.72;55.61;98530.62;1747290;81;21297;-65
2020/12/25 04:48:08;;;;;;;6.60;5.30;;;;;;;9.71;55.62;98544.87;1754577;81;21194;-66
2020/12/25 04:50:36;;;;;;;6.90;5.67;;;;;;;9.72;55.61;98537.77;1791944;77;21103;-66
2020/12/25 04:53:03;;;;;;;7.42;5.17;;;;;;;9.73;55.62;98535.41;1794459;79;21145;-65
2020/12/25 04:55:30;;;;;;;7.12;5.83;;;;;;;9.74;55.62;98546.34;1814306;79;21360;-66
2020/12/25 04:57:58;;;;;;;10.35;5.67;;;;;;;9.74;55.61;98549.81;1791725;79;21127;-66
2020/12/25 05:00:27;;;;;;;8.30;5.55;;;;;;;9.75;55.62;98554.60;1802819;79;21163;-66
2020/12/25 05:02:54;;;;;;;6.92;5.50;;;;;;;9.75;55.62;98555.41;1802759;79;21973;-65
2020/12/25 05:05:30;;;;;;;7.75;5.00;;;;;;;9.76;55.60;98549.62;1792798;77;21116;-66
2020/12/25 05:08:00;;;;;;;7.70;5.47;;;;;;;9.76;55.60;98543.80;1798264;79;21407;-64
2020/12/25 05:10:28;;;;;;;6.97;5.10;;;;;;;9.76;55.60;98553.09;1813543;79;21433;-64
2020/12/25 05:12:55;;;;;;;7.35;6.20;;;;;;;9.75;55.64;98550.11;1802197;79;21107;-65
2020/12/25 05:15:23;;;;;;;7.80;5.80;;;;;;;9.77;55.64;98567.16;1773468;79;21164;-65
2020/12/25 05:17:55;;;;;;;8.70;6.65;;;;;;;9.78;55.63;98571.47;1794560;79;21612;-65
2020/12/25 05:20:23;;;;;;;9.50;6.45;;;;;;;9.79;55.65;98562.00;1790879;77;21230;-65
2020/12/25 05:22:51;;;;;;;7.58;5.70;;;;;;;9.80;55.64;98570.77;1763099;80;21138;-66
2020/12/25 05:25:19;;;;;;;7.08;5.33;;;;;;;9.80;55.65;98566.80;1805894;78;21123;-66
2020/12/25 05:27:49;;;;;;;7.92;5.92;;;;;;;9.80;55.63;98572.09;1780442;80;21162;-66
2020/12/25 05:30:16;;;;;;;8.60;6.37;;;;;;;9.81;55.61;98566.61;1793606;79;21176;-64
2020/12/25 05:32:45;;;;;;;6.80;5.50;;;;;;;9.80;55.62;98566.80;1765795;80;21369;-65
2020/12/25 05:35:14;;;;;;;8.08;5.95;;;;;;;9.82;55.62;98570.88;1778804;80;21166;-64
2020/12/25 05:37:41;;;;;;;8.13;6.35;;;;;;;9.82;55.61;98589.45;1767240;80;21087;-68
2020/12/25 05:40:09;;;;;;;7.17;5.83;;;;;;;9.83;55.61;98592.91;1780590;80;21112;-65
2020/12/25 05:42:45;;;;;;;8.08;6.28;;;;;;;9.85;55.63;98594.90;1758857;80;21624;-65
2020/12/25 05:45:18;;;;;;;7.83;6.53;;;;;;;9.86;55.63;98590.41;1792891;80;21377;-65
2020/12/25 05:47:46;;;;;;;7.60;6.20;;;;;;;9.84;55.63;98599.36;1792236;79;21167;-65
2020/12/25 05:50:20;;;;;;;7.50;5.97;;;;;;;9.86;55.64;98603.16;1776125;79;21227;-65
2020/12/25 05:52:48;;;;;;;9.58;6.92;;;;;;;9.86;55.64;98603.16;1769069;80;21115;-64
2020/12/25 05:55:18;;;;;;;8.03;6.08;;;;;;;9.86;55.65;98604.48;1794167;80;21198;-64
2020/12/25 05:57:54;;;;;;;9.98;6.90;;;;;;;9.87;55.64;98608.80;1812320;79;21445;-64
2020/12/25 06:00:23;;;;;;;9.13;7.00;;;;;;;9.88;55.62;98615.72;1781227;80;21103;-64
2020/12/25 06:02:52;;;;;;;8.95;7.12;;;;;;;9.88;55.63;98613.58;1786912;80;21135;-65
2020/12/25 06:05:24;;;;;;;8.38;6.75;;;;;;;9.88;55.63;98609.60;1795895;79;21532;-64
2020/12/25 06:07:57;;;;;;;8.68;7.03;;;;;;;9.89;55.67;98617.86;1793116;80;21134;-65
2020/12/25 06:10:27;;;;;;;7.85;6.60;;;;;;;9.89;55.64;98624.49;1780488;80;26019;-65
2020/12/25 06:12:58;;;;;;;8.63;6.53;;;;;;;9.88;55.67;98626.84;1780764;80;21726;-65
2020/12/25 06:15:28;;;;;;;9.10;6.55;;;;;;;9.89;55.69;98630.64;1788622;79;21158;-65
2020/12/25 06:18:03;;;;;;;11.30;8.75;;;;;;;9.90;55.68;98638.09;1802835;79;21139;-65
2020/12/25 06:20:34;;;;;;;9.85;7.95;;;;;;;9.90;55.65;98630.13;1773388;80;21597;-65
2020/12/25 06:23:03;;;;;;;9.00;6.95;;;;;;;9.91;55.67;98631.27;1787298;80;21582;-65
2020/12/25 06:25:30;;;;;;;7.45;6.30;;;;;;;9.91;55.67;98637.06;1807885;79;21156;-64
2020/12/25 06:28:00;;;;;;;9.18;7.45;;;;;;;9.93;55.69;98637.69;1790518;80;21138;-65
2020/12/25 06:30:29;;;;;;;8.90;7.47;;;;;;;9.93;55.68;98639.02;1813320;79;21206;-65
2020/12/25 06:32:57;;;;;;;9.30;7.30;;;;;;;9.94;55.69;98638.83;1769390;80;21162;-65
2020/12/25 06:35:40;;;;;;;8.13;7.10;;;;;;;9.94;55.68;98646.78;1786661;79;21386;-65
2020/12/25 06:38:11;;;;;;;;;;;;;;;9.94;55.67;98646.78;1792719;79;21186;-65
2020/12/25 06:40:38;;;;;;;8.58;6.92;;;;;;;9.95;55.67;98649.77;1772864;80;20595;-65
2020/12/25 06:43:17;;;;;;;9.43;6.60;;;;;;;9.88;55.78;98651.53;1775879;80;21186;-65
2020/12/25 06:45:50;;;;;;;9.53;7.15;;;;;;;9.90;55.80;98655.33;1780186;80;21194;-65
2020/12/25 06:48:20;;;;;;;9.35;7.05;;;;;;;9.91;55.78;98661.78;1814339;79;21528;-65
2020/12/25 06:50:59;;;;;;;9.60;7.70;;;;;;;9.93;55.77;98661.56;1788708;80;21556;-66
2020/12/25 06:53:43;;;;;;;8.98;6.60;;;;;;;9.93;55.77;98669.04;1793303;79;21143;-65
2020/12/25 06:56:18;;;;;;;9.40;7.58;;;;;;;9.95;55.78;98678.14;1777474;80;21139;-65
2020/12/25 06:58:51;;;;;;;9.18;7.08;;;;;;;9.95;55.79;98671.51;1809822;79;21582;-65
2020/12/25 07:01:40;;;;;;;8.95;7.28;;;;;;;9.95;55.78;98681.61;1796749;79;21381;-65
2020/12/25 07:04:11;;;;;;;9.58;7.80;;;;;;;9.95;55.77;98682.94;1794496;79;21169;-66
2020/12/25 07:06:39;;;;;;;8.68;6.87;;;;;;;9.95;55.78;98681.61;1773478;79;21560;-65
2020/12/25 07:09:10;;;;;;;8.33;6.72;;;;;;;9.97;55.78;98682.23;1745752;79;21203;-65
2020/12/25 07:11:37;;;;;;;9.33;7.45;;;;;;;9.98;55.78;98683.86;1798343;79;21602;-64
2020/12/25 07:14:05;;;;;;;8.70;7.22;;;;;;;9.99;55.77;98676.23;1783801;80;22002;-65
2020/12/25 07:16:32;;;;;;;10.10;7.58;;;;;;;10.01;55.74;98682.69;1795612;77;21827;-65
2020/12/25 07:19:00;;;;;;;9.13;7.42;;;;;;;10.02;55.73;98690.94;1749031;80;21652;-64
2020/12/25 07:21:28;;;;;;;9.20;7.00;;;;;;;10.02;55.74;98693.11;1804374;79;21558;-64
2020/12/25 07:23:55;;;;;;;8.23;6.75;;;;;;;10.03;55.72;98693.41;1755969;80;21166;-65
2020/12/25 07:26:23;;;;;;;7.97;6.62;;;;;;;10.04;55.70;98691.09;1775110;80;21611;-66
2020/12/25 07:28:50;;;;;;;9.18;7.55;;;;;;;10.06;55.69;98688.73;1806619;79;21132;-65
2020/12/25 07:31:19;;;;;;;9.13;7.17;;;;;;;10.08;55.68;98697.32;1760751;80;21650;-65
2020/12/25 07:33:55;;;;;;;8.70;7.20;;;;;;;10.09;55.66;98702.95;1766946;80;21171;-65
2020/12/25 07:36:23;;;;;;;9.50;7.72;;;;;;;10.11;55.63;98708.89;1761114;80;21147;-66
2020/12/25 07:39:02;;;;;;;8.53;7.15;;;;;;;10.10;55.63;98708.56;1787010;79;21190;-66
2020/12/25 07:41:29;;;;;;;8.50;7.12;;;;;;;10.12;55.63;98717.16;1773459;80;21179;-66
2020/12/25 07:43:57;;;;;;;8.85;7.65;;;;;;;10.13;55.63;98722.80;1769283;80;21606;-65
2020/12/25 07:46:24;;;;;;;8.58;7.05;;;;;;;10.12;55.60;98723.79;1801162;79;21132;-65
2020/12/25 07:48:59;;;;;;;9.15;7.40;;;;;;;10.14;55.58;98729.73;1796926;77;21127;-66
2020/12/25 07:51:28;;;;;;;8.85;6.97;;;;;;;10.14;55.58;98741.19;1780163;80;21356;-65
2020/12/25 07:53:57;;;;;;;9.58;6.97;;;;;;;10.15;55.59;98739.34;1782460;80;21155;-67
2020/12/25 07:56:30;;;;;;;10.70;7.70;;;;;;;10.08;55.59;98735.28;1810424;79;21631;-66
2020/12/25 07:58:59;;;;;;;8.33;7.20;;;;;;;10.16;55.58;98737.84;1773470;80;21568;-66
2020/12/25 08:01:28;;;;;;;9.73;7.70;;;;;;;10.16;55.58;98736.51;1768162;80;21167;-66
2020/12/25 08:06:23;;;;;;;8.45;7.47;;;;;;;10.21;55.56;98743.37;1795108;78;28172;-66
2020/12/25 08:09:03;;;;;;;8.68;7.55;;;;;;;10.12;55.67;98745.87;1787648;78;21642;-65
2020/12/25 08:11:31;;;;;;;9.18;7.83;;;;;;;10.14;55.66;98749.63;1799283;78;21366;-65
2020/12/25 08:14:05;;;;;;;9.18;7.65;;;;;;;10.17;55.64;98759.88;1779016;79;21024;-65
2020/12/25 08:16:34;;;;;;;10.03;7.95;;;;;;;10.17;55.63;98750.59;1781810;80;21171;-65
2020/12/25 08:19:04;;;;;;;9.30;7.40;;;;;;;10.17;55.64;98745.28;1768108;79;21155;-65
2020/12/25 08:21:38;;;;;;;8.53;7.53;;;;;;;10.18;55.63;98757.56;1758131;79;21135;-65
2020/12/25 08:24:06;;;;;;;8.68;7.33;;;;;;;10.19;55.61;98754.69;1816893;78;21154;-66
2020/12/25 08:26:36;;;;;;;8.15;7.15;;;;;;;10.20;55.60;98757.67;1817956;78;21096;-65
2020/12/25 08:29:04;;;;;;;8.95;7.75;;;;;;;10.21;55.59;98756.64;1805755;78;21177;-66
2020/12/25 08:31:36;;;;;;;9.00;7.25;;;;;;;10.23;55.59;98757.79;1799593;78;21162;-66
2020/12/25 08:34:04;;;;;;;8.88;7.08;;;;;;;10.23;55.57;98765.23;1789437;79;21111;-64
2020/12/25 08:36:32;;;;;;;8.50;7.60;;;;;;;10.24;55.58;98761.59;1799682;78;21334;-64
2020/12/25 08:39:01;;;;;;;8.73;7.55;;;;;;;10.25;55.55;98767.71;1779319;79;21207;-65
2020/12/25 08:41:28;;;;;;;9.05;7.17;;;;;;;10.26;55.54;98777.33;1778676;79;21646;-64
2020/12/25 08:44:10;;;;;;;9.18;7.45;;;;;;;10.27;55.53;98776.81;1787825;78;21168;-66
2020/12/25 08:46:38;;;;;;;9.10;7.55;;;;;;;10.28;55.51;98770.00;1784230;78;22151;-66
2020/12/25 08:49:06;;;;;;;8.98;7.90;;;;;;;10.28;55.50;98767.34;1773151;80;21473;-66
2020/12/25 08:51:36;;;;;;;8.73;7.25;;;;;;;10.29;55.52;98768.16;1790101;80;21575;-66
2020/12/25 08:54:04;;;;;;;9.73;7.95;;;;;;;10.29;55.50;98766.31;1790282;80;21088;-69
2020/12/25 08:56:31;;;;;;;8.88;7.20;;;;;;;10.30;55.50;98771.98;1767369;80;21143;-67
2020/12/25 08:59:03;;;;;;;8.90;7.55;;;;;;;10.31;55.49;98776.78;1745545;79;21211;-66
2020/12/25 09:01:32;;;;;;;8.78;7.70;;;;;;;10.33;55.47;98770.78;1777507;79;21371;-68
2020/12/25 09:04:00;;;;;;;8.13;6.83;;;;;;;10.33;55.48;98770.78;1796999;78;21592;-69
2020/12/25 09:06:28;;;;;;;9.20;7.12;;;;;;;10.32;55.47;98762.00;1772336;80;21166;-67
2020/12/25 09:08:55;;;;;;;7.90;7.00;;;;;;;10.33;55.48;98762.81;1779903;79;21208;-66
2020/12/25 09:11:24;;;;;;;8.70;6.78;;;;;;;10.34;55.43;98771.92;1771084;79;21172;-67
2020/12/25 09:13:52;;;;;;;9.13;7.42;;;;;;;10.35;55.44;98768.75;1790711;79;21372;-67
2020/12/25 09:16:19;;;;;;;8.85;7.50;;;;;;;10.36;55.44;98759.78;1770223;79;21163;-66
2020/12/25 09:18:53;;;;;;;9.40;7.20;;;;;;;10.37;55.44;98766.24;1771988;79;21168;-64
2020/12/25 09:21:20;;;;;;;8.98;7.22;;;;;;;10.41;55.42;98775.95;1789847;79;21175;-65
2020/12/25 09:23:47;;;;;;;8.85;6.83;;;;;;;10.42;55.39;98771.78;1791411;79;21103;-66
2020/12/25 09:26:14;;;;;;;7.85;7.05;;;;;;;10.46;55.36;98762.93;1800835;79;21209;-65
2020/12/25 09:28:42;;;;;;;8.25;7.05;;;;;;;10.49;55.33;98763.05;1796934;79;21713;-66
2020/12/25 09:31:12;;;;;;;7.80;7.00;;;;;;;10.52;55.25;98762.16;1800978;79;21174;-65
2020/12/25 09:33:40;;;;;;;10.40;8.08;;;;;;;10.55;55.24;98763.63;1799981;79;21130;-64
2020/12/25 09:36:09;;;;;;;8.83;7.10;;;;;;;10.58;55.21;98763.23;1801597;79;21135;-65
2020/12/25 09:38:42;;;;;;;7.85;6.12;;;;;;;10.60;55.13;98765.19;1801057;79;21347;-64
2020/12/25 09:41:06;;;;;;;8.70;7.05;;;;;;;10.64;55.08;98755.81;1798896;79;21155;-65
2020/12/25 09:43:35;;;;;;;8.73;6.97;;;;;;;10.68;55.06;98762.89;1785954;79;21111;-65
2020/12/25 09:46:03;;;;;;;7.55;6.22;;;;;;;10.70;55.02;98760.38;1778707;79;21146;-66
2020/12/25 09:48:30;;;;;;;8.65;7.25;;;;;;;10.72;54.95;98758.84;1784051;79;21167;-67
2020/12/25 09:50:58;;;;;;;7.67;6.75;;;;;;;10.74;54.93;98756.33;1784908;80;22343;-67
2020/12/25 09:53:26;;;;;;;8.43;6.92;;;;;;;10.78;54.86;98760.75;1779064;80;21456;-66
2020/12/25 09:55:53;;;;;;;8.63;6.72;;;;;;;10.79;54.84;98758.39;1780396;80;21248;-67
2020/12/25 09:58:20;;;;;;;7.75;6.78;;;;;;;10.80;54.81;98745.44;1787374;79;21216;-66
2020/12/25 10:00:47;;;;;;;8.00;6.17;;;;;;;10.81;54.79;98741.75;1788191;79;21186;-65
2020/12/25 10:03:15;;;;;;;7.58;6.03;;;;;;;10.84;54.76;98740.04;1792269;79;21460;-66
2020/12/25 10:05:42;;;;;;;7.95;6.97;;;;;;;10.87;54.71;98740.15;1777795;79;21208;-66
2020/12/25 10:08:09;;;;;;;9.45;6.97;;;;;;;10.88;54.69;98746.60;1798827;79;22295;-66
2020/12/25 10:10:38;;;;;;;8.38;6.85;;;;;;;10.92;54.64;98735.89;1799059;79;21166;-65
2020/12/25 10:13:07;;;;;;;8.88;6.85;;;;;;;10.96;54.60;98727.03;1791949;79;21111;-65
2020/12/25 10:15:35;;;;;;;7.35;6.37;;;;;;;11.00;54.56;98727.76;1801835;79;21350;-65
2020/12/25 10:18:03;;;;;;;8.03;6.85;;;;;;;11.06;54.51;98723.50;1792950;79;21159;-67
2020/12/25 10:20:30;;;;;;;8.53;6.60;;;;;;;11.11;54.44;98726.41;1800046;79;21147;-66
2020/12/25 10:22:57;;;;;;;8.25;6.30;;;;;;;11.16;54.36;98734.63;1801860;79;21822;-67
2020/12/25 10:25:24;;;;;;;8.18;6.92;;;;;;;11.20;54.32;98734.53;1800428;79;21146;-68
2020/12/25 10:27:52;;;;;;;8.70;6.45;;;;;;;11.27;54.25;98731.89;1789508;79;21990;-66
2020/12/25 10:30:19;;;;;;;7.90;6.30;;;;;;;11.32;54.19;98732.62;1801798;79;21119;-67
2020/12/25 10:32:46;;;;;;;7.90;7.00;;;;;;;11.39;54.11;98740.12;1788035;79;21630;-67
2020/12/25 10:35:15;;;;;;;6.97;6.28;;;;;;;11.46;54.00;98737.00;1791905;79;21606;-66
2020/12/25 10:37:43;;;;;;;7.45;6.60;;;;;;;11.53;53.87;98744.99;1801851;79;21138;-66
2020/12/25 10:40:12;;;;;;;6.50;5.60;;;;;;;11.60;53.76;98756.48;1798314;79;21467;-67
2020/12/25 10:42:40;;;;;;;6.87;6.20;;;;;;;11.66;53.65;98757.02;1799711;79;21134;-66
2020/12/25 10:45:09;;;;;;;6.78;5.85;;;;;;;11.72;53.58;98762.86;1801377;79;21151;-65
2020/12/25 10:47:36;;;;;;;7.20;6.28;;;;;;;11.78;53.49;98761.25;1801176;78;21218;-66
2020/12/25 10:50:04;;;;;;;7.80;6.47;;;;;;;11.84;53.39;98764.95;1791242;79;21096;-66
2020/12/25 10:52:31;;;;;;;7.00;6.03;;;;;;;11.87;53.46;98767.23;1796175;79;21202;-66
2020/12/25 10:54:58;;;;;;;7.78;6.42;;;;;;;11.88;53.40;98760.38;1801800;79;21197;-66
2020/12/25 10:57:25;;;;;;;7.30;5.83;;;;;;;11.90;53.36;98758.37;1801759;79;21119;-66
2020/12/25 10:59:55;;;;;;;7.40;5.85;;;;;;;11.90;53.39;98765.02;1800358;79;21182;-66
2020/12/25 11:02:23;;;;;;;7.78;6.08;;;;;;;11.91;53.41;98764.50;1801821;79;21134;-65
2020/12/25 11:05:22;;;;;;;8.15;6.33;;;;;;;11.90;53.42;98770.34;1783961;79;21196;-66
2020/12/25 11:08:17;;;;;;;7.22;6.03;;;;;;;11.88;53.46;98767.03;1778107;80;21642;-65
2020/12/25 11:11:45;;;;;;;7.95;5.22;;;;;;;11.88;53.34;98767.52;1770992;80;21170;-65
2020/12/25 11:14:14;;;;;;;7.12;6.25;;;;;;;11.87;53.35;98783.20;1772802;80;21382;-66
2020/12/25 11:16:42;;;;;;;7.53;5.65;;;;;;;11.85;53.34;98774.07;1789286;80;21642;-66
2020/12/25 11:19:10;;;;;;;6.90;6.00;;;;;;;11.85;53.38;98775.41;1788854;80;21197;-66
2020/12/25 11:21:39;;;;;;;7.28;5.62;;;;;;;11.85;53.35;98792.70;1793999;79;21135;-65
2020/12/25 11:24:06;;;;;;;7.58;5.65;;;;;;;11.83;53.34;98789.42;1794581;80;21694;-66
2020/12/25 11:26:35;;;;;;;6.08;5.45;;;;;;;11.84;53.35;98794.22;1794468;80;21158;-66
2020/12/25 11:29:05;;;;;;;6.10;5.22;;;;;;;11.83;53.37;98793.41;1794493;80;21112;-66
2020/12/25 11:31:33;;;;;;;6.97;5.22;;;;;;;11.81;53.37;98810.90;1789698;80;21922;-66
2020/12/25 11:34:00;;;;;;;7.12;5.80;;;;;;;11.80;53.43;98806.61;1759360;80;21168;-67
2020/12/25 11:36:34;;;;;;;6.47;5.58;;;;;;;11.79;53.47;98796.98;1777466;80;21186;-68
2020/12/25 11:39:03;;;;;;;6.45;5.60;;;;;;;11.77;53.51;98792.37;1770464;80;21659;-66
2020/12/25 11:41:30;;;;;;;6.67;5.37;;;;;;;11.76;53.54;98799.20;1794483;80;21187;-66
2020/12/25 11:43:58;;;;;;;7.10;5.17;;;;;;;11.73;53.58;98805.76;1794488;80;21151;-65
2020/12/25 11:46:25;;;;;;;7.33;6.20;;;;;;;11.72;53.61;98801.96;1794278;80;21182;-66
2020/12/25 11:48:52;;;;;;;6.08;5.17;;;;;;;11.70;53.62;98794.17;1775498;80;21612;-65
2020/12/25 11:51:22;;;;;;;7.47;6.03;;;;;;;11.69;53.67;98805.84;1786299;80;21163;-65